sensor_id;sensor_type;location;lat;lon;timestamp;P1;durP1;ratioP1;P2;durP2;ratioP2
26620;SDS011;14253;44.840;10.444;2022-08-01T00:01:01;3.47;;;2.13;;
26620;SDS011;14253;44.840;10.444;2022-08-01T00:03:27;3.90;;;2.00;;
26620;SDS011;14253;44.840;10.444;2022-08-01T00:05:53;2.25;;;1.75;;
26620;SDS011;14253;44.840;10.444;2022-08-01T00:08:20;3.05;;;2.00;;
26620;SDS011;14253;44.840;10.444;2022-08-01T00:10:46;3.25;;;2.10;;
26620;SDS011;14253;44.840;10.444;2022-08-01T00:13:33;3.35;;;1.95;;
26620;SDS011;14253;44.840;10.444;2022-08-01T00:15:59;4.03;;;2.40;;
26620;SDS011;14253;44.840;10.444;2022-08-01T00:18:25;3.83;;;2.00;;
26620;SDS011;14253;44.840;10.444;2022-08-01T00:20:50;3.25;;;2.10;;
26620;SDS011;14253;44.840;10.444;2022-08-01T00:23:16;3.20;;;2.05;;
26620;SDS011;14253;44.840;10.444;2022-08-01T00:25:42;2.70;;;2.10;;
26620;SDS011;14253;44.840;10.444;2022-08-01T00:28:08;3.35;;;1.92;;
26620;SDS011;14253;44.840;10.444;2022-08-01T00:30:35;2.92;;;2.25;;
26620;SDS011;14253;44.840;10.444;2022-08-01T00:33:01;4.25;;;1.90;;
26620;SDS011;14253;44.840;10.444;2022-08-01T00:35:28;2.92;;;2.05;;
26620;SDS011;14253;44.840;10.444;2022-08-01T00:37:54;5.45;;;2.08;;
26620;SDS011;14253;44.840;10.444;2022-08-01T00:40:20;3.45;;;2.45;;
26620;SDS011;14253;44.840;10.444;2022-08-01T00:42:46;3.95;;;2.20;;
26620;SDS011;14253;44.840;10.444;2022-08-01T00:45:12;4.22;;;2.20;;
26620;SDS011;14253;44.840;10.444;2022-08-01T00:47:38;2.20;;;1.80;;
26620;SDS011;14253;44.840;10.444;2022-08-01T00:50:04;3.15;;;2.17;;
26620;SDS011;14253;44.840;10.444;2022-08-01T00:52:31;5.63;;;2.50;;
26620;SDS011;14253;44.840;10.444;2022-08-01T00:54:58;3.53;;;2.10;;
26620;SDS011;14253;44.840;10.444;2022-08-01T00:57:25;3.08;;;2.10;;
26620;SDS011;14253;44.840;10.444;2022-08-01T00:59:51;4.20;;;2.30;;
26620;SDS011;14253;44.840;10.444;2022-08-01T01:02:17;3.38;;;1.90;;
26620;SDS011;14253;44.840;10.444;2022-08-01T01:04:44;3.30;;;2.03;;
26620;SDS011;14253;44.840;10.444;2022-08-01T01:07:16;2.55;;;1.95;;
26620;SDS011;14253;44.840;10.444;2022-08-01T01:09:54;3.22;;;2.13;;
26620;SDS011;14253;44.840;10.444;2022-08-01T01:15:10;2.63;;;2.13;;
26620;SDS011;14253;44.840;10.444;2022-08-01T01:20:13;4.65;;;2.13;;
26620;SDS011;14253;44.840;10.444;2022-08-01T01:22:50;3.20;;;1.98;;
26620;SDS011;14253;44.840;10.444;2022-08-01T01:25:40;2.30;;;1.70;;
26620;SDS011;14253;44.840;10.444;2022-08-01T01:28:27;3.33;;;1.55;;
26620;SDS011;14253;44.840;10.444;2022-08-01T01:30:58;2.97;;;1.77;;
26620;SDS011;14253;44.840;10.444;2022-08-01T01:33:28;3.05;;;1.92;;
26620;SDS011;14253;44.840;10.444;2022-08-01T01:36:01;3.60;;;1.92;;
26620;SDS011;14253;44.840;10.444;2022-08-01T01:38:33;3.80;;;1.88;;
26620;SDS011;14253;44.840;10.444;2022-08-01T01:41:07;2.15;;;1.60;;
26620;SDS011;14253;44.840;10.444;2022-08-01T01:43:35;2.72;;;1.95;;
26620;SDS011;14253;44.840;10.444;2022-08-01T01:46:03;3.30;;;2.05;;
26620;SDS011;14253;44.840;10.444;2022-08-01T01:48:30;4.18;;;1.77;;
26620;SDS011;14253;44.840;10.444;2022-08-01T01:50:57;3.15;;;2.05;;
26620;SDS011;14253;44.840;10.444;2022-08-01T01:53:25;2.65;;;1.80;;
26620;SDS011;14253;44.840;10.444;2022-08-01T01:55:53;2.88;;;1.95;;
26620;SDS011;14253;44.840;10.444;2022-08-01T01:58:23;3.00;;;2.00;;
26620;SDS011;14253;44.840;10.444;2022-08-01T02:00:51;5.05;;;1.98;;
26620;SDS011;14253;44.840;10.444;2022-08-01T02:03:18;2.35;;;2.00;;
26620;SDS011;14253;44.840;10.444;2022-08-01T02:05:46;2.85;;;1.90;;
26620;SDS011;14253;44.840;10.444;2022-08-01T02:08:14;2.15;;;1.48;;
26620;SDS011;14253;44.840;10.444;2022-08-01T02:10:41;2.25;;;1.60;;
26620;SDS011;14253;44.840;10.444;2022-08-01T02:13:29;4.43;;;1.90;;
26620;SDS011;14253;44.840;10.444;2022-08-01T02:15:58;2.33;;;1.70;;
26620;SDS011;14253;44.840;10.444;2022-08-01T02:18:25;5.47;;;1.77;;
26620;SDS011;14253;44.840;10.444;2022-08-01T02:20:52;1.95;;;1.48;;
26620;SDS011;14253;44.840;10.444;2022-08-01T02:23:20;3.97;;;2.35;;
26620;SDS011;14253;44.840;10.444;2022-08-01T02:25:49;2.40;;;1.70;;
26620;SDS011;14253;44.840;10.444;2022-08-01T02:28:23;4.53;;;1.80;;
26620;SDS011;14253;44.840;10.444;2022-08-01T02:30:54;3.10;;;2.00;;
26620;SDS011;14253;44.840;10.444;2022-08-01T02:36:01;5.68;;;1.80;;
26620;SDS011;14253;44.840;10.444;2022-08-01T02:38:28;2.95;;;1.90;;
26620;SDS011;14253;44.840;10.444;2022-08-01T02:40:58;3.65;;;1.92;;
26620;SDS011;14253;44.840;10.444;2022-08-01T02:43:34;2.60;;;1.90;;
26620;SDS011;14253;44.840;10.444;2022-08-01T02:46:04;2.40;;;1.55;;
26620;SDS011;14253;44.840;10.444;2022-08-01T02:48:33;4.43;;;1.77;;
26620;SDS011;14253;44.840;10.444;2022-08-01T02:51:01;4.75;;;2.30;;
26620;SDS011;14253;44.840;10.444;2022-08-01T02:53:30;3.42;;;2.05;;
26620;SDS011;14253;44.840;10.444;2022-08-01T02:56:02;3.70;;;1.80;;
26620;SDS011;14253;44.840;10.444;2022-08-01T02:58:31;4.60;;;2.17;;
26620;SDS011;14253;44.840;10.444;2022-08-01T03:00:59;4.30;;;2.60;;
26620;SDS011;14253;44.840;10.444;2022-08-01T03:03:26;4.72;;;2.53;;
26620;SDS011;14253;44.840;10.444;2022-08-01T03:05:52;5.32;;;2.85;;
26620;SDS011;14253;44.840;10.444;2022-08-01T03:08:19;4.72;;;2.90;;
26620;SDS011;14253;44.840;10.444;2022-08-01T03:10:46;6.95;;;2.80;;
26620;SDS011;14253;44.840;10.444;2022-08-01T03:13:14;4.82;;;3.45;;
26620;SDS011;14253;44.840;10.444;2022-08-01T03:15:42;6.00;;;3.80;;
26620;SDS011;14253;44.840;10.444;2022-08-01T03:18:09;5.72;;;4.88;;
26620;SDS011;14253;44.840;10.444;2022-08-01T03:20:37;4.88;;;3.60;;
26620;SDS011;14253;44.840;10.444;2022-08-01T03:23:05;5.72;;;3.22;;
26620;SDS011;14253;44.840;10.444;2022-08-01T03:25:32;4.85;;;3.17;;
26620;SDS011;14253;44.840;10.444;2022-08-01T03:28:02;4.80;;;3.42;;
26620;SDS011;14253;44.840;10.444;2022-08-01T03:30:30;5.88;;;3.72;;
26620;SDS011;14253;44.840;10.444;2022-08-01T03:32:57;4.30;;;3.33;;
26620;SDS011;14253;44.840;10.444;2022-08-01T03:35:29;5.18;;;3.70;;
26620;SDS011;14253;44.840;10.444;2022-08-01T03:37:58;5.97;;;3.65;;
26620;SDS011;14253;44.840;10.444;2022-08-01T03:40:47;3.97;;;3.30;;
26620;SDS011;14253;44.840;10.444;2022-08-01T03:43:26;6.10;;;4.47;;
26620;SDS011;14253;44.840;10.444;2022-08-01T03:46:17;5.60;;;3.80;;
26620;SDS011;14253;44.840;10.444;2022-08-01T03:48:58;6.32;;;3.88;;
26620;SDS011;14253;44.840;10.444;2022-08-01T03:51:29;7.03;;;4.13;;
26620;SDS011;14253;44.840;10.444;2022-08-01T03:53:56;7.30;;;4.68;;
26620;SDS011;14253;44.840;10.444;2022-08-01T03:56:24;7.20;;;4.10;;
26620;SDS011;14253;44.840;10.444;2022-08-01T03:58:51;6.18;;;4.28;;
26620;SDS011;14253;44.840;10.444;2022-08-01T04:01:18;4.60;;;3.60;;
26620;SDS011;14253;44.840;10.444;2022-08-01T04:03:45;7.32;;;3.90;;
26620;SDS011;14253;44.840;10.444;2022-08-01T04:06:11;8.32;;;4.03;;
26620;SDS011;14253;44.840;10.444;2022-08-01T04:08:39;5.65;;;4.18;;
26620;SDS011;14253;44.840;10.444;2022-08-01T04:11:07;6.35;;;4.20;;
26620;SDS011;14253;44.840;10.444;2022-08-01T04:13:34;6.88;;;4.43;;
26620;SDS011;14253;44.840;10.444;2022-08-01T04:16:00;6.00;;;4.40;;
26620;SDS011;14253;44.840;10.444;2022-08-01T04:18:26;5.25;;;3.88;;
26620;SDS011;14253;44.840;10.444;2022-08-01T04:20:52;6.05;;;4.35;;
26620;SDS011;14253;44.840;10.444;2022-08-01T04:23:19;5.57;;;4.18;;
26620;SDS011;14253;44.840;10.444;2022-08-01T04:25:50;6.93;;;4.32;;
26620;SDS011;14253;44.840;10.444;2022-08-01T04:28:17;7.78;;;4.28;;
26620;SDS011;14253;44.840;10.444;2022-08-01T04:30:46;6.60;;;4.15;;
26620;SDS011;14253;44.840;10.444;2022-08-01T04:33:15;7.82;;;3.83;;
26620;SDS011;14253;44.840;10.444;2022-08-01T04:35:43;10.68;;;3.92;;
26620;SDS011;14253;44.840;10.444;2022-08-01T04:38:12;7.70;;;3.42;;
26620;SDS011;14253;44.840;10.444;2022-08-01T04:43:11;5.85;;;3.17;;
26620;SDS011;14253;44.840;10.444;2022-08-01T04:45:39;6.75;;;3.15;;
26620;SDS011;14253;44.840;10.444;2022-08-01T04:48:15;9.73;;;3.85;;
26620;SDS011;14253;44.840;10.444;2022-08-01T04:50:42;8.43;;;3.85;;
26620;SDS011;14253;44.840;10.444;2022-08-01T04:53:19;5.30;;;3.35;;
26620;SDS011;14253;44.840;10.444;2022-08-01T04:55:47;6.50;;;3.83;;
26620;SDS011;14253;44.840;10.444;2022-08-01T04:58:16;5.38;;;3.60;;
26620;SDS011;14253;44.840;10.444;2022-08-01T05:00:42;6.00;;;3.60;;
26620;SDS011;14253;44.840;10.444;2022-08-01T05:03:08;4.95;;;3.88;;
26620;SDS011;14253;44.840;10.444;2022-08-01T05:05:34;9.93;;;2.90;;
26620;SDS011;14253;44.840;10.444;2022-08-01T05:08:00;4.25;;;3.40;;
26620;SDS011;14253;44.840;10.444;2022-08-01T05:10:27;5.00;;;3.22;;
26620;SDS011;14253;44.840;10.444;2022-08-01T05:12:53;4.50;;;3.38;;
26620;SDS011;14253;44.840;10.444;2022-08-01T05:15:19;4.07;;;3.17;;
26620;SDS011;14253;44.840;10.444;2022-08-01T05:17:46;5.88;;;3.03;;
26620;SDS011;14253;44.840;10.444;2022-08-01T05:20:12;4.15;;;2.88;;
26620;SDS011;14253;44.840;10.444;2022-08-01T05:22:38;7.80;;;2.88;;
26620;SDS011;14253;44.840;10.444;2022-08-01T05:25:05;9.05;;;3.25;;
26620;SDS011;14253;44.840;10.444;2022-08-01T05:27:33;7.40;;;2.85;;
26620;SDS011;14253;44.840;10.444;2022-08-01T05:30:08;3.75;;;2.65;;
26620;SDS011;14253;44.840;10.444;2022-08-01T05:32:39;3.28;;;2.33;;
26620;SDS011;14253;44.840;10.444;2022-08-01T05:35:06;3.47;;;2.38;;
26620;SDS011;14253;44.840;10.444;2022-08-01T05:37:32;5.15;;;2.38;;
26620;SDS011;14253;44.840;10.444;2022-08-01T05:39:58;5.18;;;2.75;;
26620;SDS011;14253;44.840;10.444;2022-08-01T05:42:24;3.97;;;2.70;;
26620;SDS011;14253;44.840;10.444;2022-08-01T05:44:51;6.32;;;2.40;;
26620;SDS011;14253;44.840;10.444;2022-08-01T05:47:17;6.03;;;3.10;;
26620;SDS011;14253;44.840;10.444;2022-08-01T05:49:44;5.68;;;2.72;;
26620;SDS011;14253;44.840;10.444;2022-08-01T05:52:10;6.93;;;3.10;;
26620;SDS011;14253;44.840;10.444;2022-08-01T05:54:37;8.63;;;3.00;;
26620;SDS011;14253;44.840;10.444;2022-08-01T05:57:03;5.97;;;3.10;;
26620;SDS011;14253;44.840;10.444;2022-08-01T05:59:29;8.00;;;3.72;;
26620;SDS011;14253;44.840;10.444;2022-08-01T06:01:56;7.05;;;4.50;;
26620;SDS011;14253;44.840;10.444;2022-08-01T06:04:21;9.20;;;4.43;;
26620;SDS011;14253;44.840;10.444;2022-08-01T06:06:47;8.75;;;3.88;;
26620;SDS011;14253;44.840;10.444;2022-08-01T06:09:13;8.90;;;3.90;;
26620;SDS011;14253;44.840;10.444;2022-08-01T06:11:40;9.05;;;3.53;;
26620;SDS011;14253;44.840;10.444;2022-08-01T06:14:06;8.25;;;3.40;;
26620;SDS011;14253;44.840;10.444;2022-08-01T06:16:32;4.72;;;3.17;;
26620;SDS011;14253;44.840;10.444;2022-08-01T06:18:58;6.88;;;3.28;;
26620;SDS011;14253;44.840;10.444;2022-08-01T06:21:24;6.97;;;2.55;;
26620;SDS011;14253;44.840;10.444;2022-08-01T06:23:50;4.85;;;2.95;;
26620;SDS011;14253;44.840;10.444;2022-08-01T06:26:19;7.03;;;2.90;;
26620;SDS011;14253;44.840;10.444;2022-08-01T06:28:45;4.00;;;2.50;;
26620;SDS011;14253;44.840;10.444;2022-08-01T06:31:12;5.95;;;2.83;;
26620;SDS011;14253;44.840;10.444;2022-08-01T06:33:39;7.07;;;2.80;;
26620;SDS011;14253;44.840;10.444;2022-08-01T06:36:05;4.60;;;2.45;;
26620;SDS011;14253;44.840;10.444;2022-08-01T06:38:31;6.25;;;3.10;;
26620;SDS011;14253;44.840;10.444;2022-08-01T06:40:58;7.50;;;2.40;;
26620;SDS011;14253;44.840;10.444;2022-08-01T06:43:28;4.68;;;2.90;;
26620;SDS011;14253;44.840;10.444;2022-08-01T06:45:56;4.55;;;2.88;;
26620;SDS011;14253;44.840;10.444;2022-08-01T06:48:24;7.32;;;2.42;;
26620;SDS011;14253;44.840;10.444;2022-08-01T06:50:51;5.53;;;2.72;;
26620;SDS011;14253;44.840;10.444;2022-08-01T06:53:33;6.10;;;2.97;;
26620;SDS011;14253;44.840;10.444;2022-08-01T06:56:02;4.63;;;3.17;;
26620;SDS011;14253;44.840;10.444;2022-08-01T06:58:29;7.45;;;3.10;;
26620;SDS011;14253;44.840;10.444;2022-08-01T07:00:55;4.75;;;3.10;;
26620;SDS011;14253;44.840;10.444;2022-08-01T07:03:21;7.78;;;3.40;;
26620;SDS011;14253;44.840;10.444;2022-08-01T07:05:46;12.00;;;3.40;;
26620;SDS011;14253;44.840;10.444;2022-08-01T07:08:16;8.45;;;4.18;;
26620;SDS011;14253;44.840;10.444;2022-08-01T07:10:48;6.20;;;3.50;;
26620;SDS011;14253;44.840;10.444;2022-08-01T07:13:17;5.78;;;3.60;;
26620;SDS011;14253;44.840;10.444;2022-08-01T07:15:46;8.00;;;4.35;;
26620;SDS011;14253;44.840;10.444;2022-08-01T07:18:12;6.22;;;5.20;;
26620;SDS011;14253;44.840;10.444;2022-08-01T07:20:38;7.25;;;5.32;;
26620;SDS011;14253;44.840;10.444;2022-08-01T07:23:04;8.50;;;5.15;;
26620;SDS011;14253;44.840;10.444;2022-08-01T07:25:30;14.98;;;6.60;;
26620;SDS011;14253;44.840;10.444;2022-08-01T07:27:56;12.52;;;5.80;;
26620;SDS011;14253;44.840;10.444;2022-08-01T07:30:22;18.52;;;7.15;;
26620;SDS011;14253;44.840;10.444;2022-08-01T07:32:48;6.95;;;5.70;;
26620;SDS011;14253;44.840;10.444;2022-08-01T07:35:14;9.75;;;5.63;;
26620;SDS011;14253;44.840;10.444;2022-08-01T07:37:40;10.68;;;6.90;;
26620;SDS011;14253;44.840;10.444;2022-08-01T07:40:07;10.98;;;7.25;;
26620;SDS011;14253;44.840;10.444;2022-08-01T07:42:33;9.73;;;5.53;;
26620;SDS011;14253;44.840;10.444;2022-08-01T07:44:59;8.63;;;5.95;;
26620;SDS011;14253;44.840;10.444;2022-08-01T07:47:25;11.48;;;6.63;;
26620;SDS011;14253;44.840;10.444;2022-08-01T07:49:52;10.68;;;6.35;;
26620;SDS011;14253;44.840;10.444;2022-08-01T07:52:25;11.63;;;6.15;;
26620;SDS011;14253;44.840;10.444;2022-08-01T07:54:52;11.85;;;7.50;;
26620;SDS011;14253;44.840;10.444;2022-08-01T07:57:18;11.68;;;7.78;;
26620;SDS011;14253;44.840;10.444;2022-08-01T07:59:44;14.85;;;6.97;;
26620;SDS011;14253;44.840;10.444;2022-08-01T08:02:10;10.65;;;6.72;;
26620;SDS011;14253;44.840;10.444;2022-08-01T08:04:36;14.40;;;7.35;;
26620;SDS011;14253;44.840;10.444;2022-08-01T08:07:02;8.05;;;6.35;;
26620;SDS011;14253;44.840;10.444;2022-08-01T08:09:28;13.48;;;7.80;;
26620;SDS011;14253;44.840;10.444;2022-08-01T08:11:54;13.25;;;8.75;;
26620;SDS011;14253;44.840;10.444;2022-08-01T08:14:20;10.68;;;8.82;;
26620;SDS011;14253;44.840;10.444;2022-08-01T08:16:48;18.27;;;7.15;;
26620;SDS011;14253;44.840;10.444;2022-08-01T08:19:13;12.63;;;7.28;;
26620;SDS011;14253;44.840;10.444;2022-08-01T08:21:40;12.52;;;7.68;;
26620;SDS011;14253;44.840;10.444;2022-08-01T08:24:06;13.27;;;7.03;;
26620;SDS011;14253;44.840;10.444;2022-08-01T08:26:48;11.73;;;7.13;;
26620;SDS011;14253;44.840;10.444;2022-08-01T08:29:24;11.30;;;5.55;;
26620;SDS011;14253;44.840;10.444;2022-08-01T08:31:54;8.32;;;5.25;;
26620;SDS011;14253;44.840;10.444;2022-08-01T08:34:21;7.00;;;5.68;;
26620;SDS011;14253;44.840;10.444;2022-08-01T08:36:48;9.40;;;5.53;;
26620;SDS011;14253;44.840;10.444;2022-08-01T08:39:14;7.90;;;5.30;;
26620;SDS011;14253;44.840;10.444;2022-08-01T08:41:41;9.30;;;5.35;;
26620;SDS011;14253;44.840;10.444;2022-08-01T08:44:07;6.88;;;4.43;;
26620;SDS011;14253;44.840;10.444;2022-08-01T08:46:39;6.85;;;3.70;;
26620;SDS011;14253;44.840;10.444;2022-08-01T08:49:08;7.82;;;5.13;;
26620;SDS011;14253;44.840;10.444;2022-08-01T08:51:34;7.63;;;5.22;;
26620;SDS011;14253;44.840;10.444;2022-08-01T08:54:03;10.00;;;5.97;;
26620;SDS011;14253;44.840;10.444;2022-08-01T08:56:32;8.52;;;5.80;;
26620;SDS011;14253;44.840;10.444;2022-08-01T08:59:02;10.23;;;4.38;;
26620;SDS011;14253;44.840;10.444;2022-08-01T09:01:28;6.75;;;4.70;;
26620;SDS011;14253;44.840;10.444;2022-08-01T09:03:58;5.15;;;4.40;;
26620;SDS011;14253;44.840;10.444;2022-08-01T09:06:24;5.65;;;4.13;;
26620;SDS011;14253;44.840;10.444;2022-08-01T09:08:50;6.18;;;3.75;;
26620;SDS011;14253;44.840;10.444;2022-08-01T09:11:16;7.45;;;4.05;;
26620;SDS011;14253;44.840;10.444;2022-08-01T09:13:58;7.28;;;4.50;;
26620;SDS011;14253;44.840;10.444;2022-08-01T09:16:37;6.30;;;3.63;;
26620;SDS011;14253;44.840;10.444;2022-08-01T09:19:16;4.05;;;2.65;;
26620;SDS011;14253;44.840;10.444;2022-08-01T09:22:03;7.15;;;4.53;;
26620;SDS011;14253;44.840;10.444;2022-08-01T09:24:32;7.13;;;4.05;;
26620;SDS011;14253;44.840;10.444;2022-08-01T09:26:58;7.35;;;3.83;;
26620;SDS011;14253;44.840;10.444;2022-08-01T09:29:30;6.63;;;3.25;;
26620;SDS011;14253;44.840;10.444;2022-08-01T09:31:59;5.85;;;3.13;;
26620;SDS011;14253;44.840;10.444;2022-08-01T09:34:31;7.47;;;3.90;;
26620;SDS011;14253;44.840;10.444;2022-08-01T09:36:59;6.47;;;2.83;;
26620;SDS011;14253;44.840;10.444;2022-08-01T09:39:30;2.88;;;2.08;;
26620;SDS011;14253;44.840;10.444;2022-08-01T09:42:24;5.78;;;2.70;;
26620;SDS011;14253;44.840;10.444;2022-08-01T09:44:52;5.22;;;3.00;;
26620;SDS011;14253;44.840;10.444;2022-08-01T09:47:18;3.80;;;2.63;;
26620;SDS011;14253;44.840;10.444;2022-08-01T09:49:55;3.20;;;2.28;;
26620;SDS011;14253;44.840;10.444;2022-08-01T09:52:24;3.10;;;2.20;;
26620;SDS011;14253;44.840;10.444;2022-08-01T09:54:52;6.45;;;2.60;;
26620;SDS011;14253;44.840;10.444;2022-08-01T09:57:19;3.65;;;1.85;;
26620;SDS011;14253;44.840;10.444;2022-08-01T09:59:47;4.13;;;2.00;;
26620;SDS011;14253;44.840;10.444;2022-08-01T10:04:56;6.00;;;2.28;;
26620;SDS011;14253;44.840;10.444;2022-08-01T10:07:23;3.20;;;1.90;;
26620;SDS011;14253;44.840;10.444;2022-08-01T10:09:48;5.28;;;2.05;;
26620;SDS011;14253;44.840;10.444;2022-08-01T10:12:16;6.38;;;2.10;;
26620;SDS011;14253;44.840;10.444;2022-08-01T10:14:45;3.85;;;1.63;;
26620;SDS011;14253;44.840;10.444;2022-08-01T10:17:20;4.32;;;1.83;;
26620;SDS011;14253;44.840;10.444;2022-08-01T10:19:50;3.22;;;1.55;;
26620;SDS011;14253;44.840;10.444;2022-08-01T10:22:19;2.03;;;1.57;;
26620;SDS011;14253;44.840;10.444;2022-08-01T10:24:50;3.30;;;1.90;;
26620;SDS011;14253;44.840;10.444;2022-08-01T10:27:20;4.45;;;1.60;;
26620;SDS011;14253;44.840;10.444;2022-08-01T10:30:00;4.25;;;1.98;;
26620;SDS011;14253;44.840;10.444;2022-08-01T10:32:33;4.05;;;1.70;;
26620;SDS011;14253;44.840;10.444;2022-08-01T10:35:01;1.85;;;1.40;;
26620;SDS011;14253;44.840;10.444;2022-08-01T10:37:28;3.17;;;1.55;;
26620;SDS011;14253;44.840;10.444;2022-08-01T10:39:54;4.13;;;1.42;;
26620;SDS011;14253;44.840;10.444;2022-08-01T10:42:21;1.98;;;1.40;;
26620;SDS011;14253;44.840;10.444;2022-08-01T10:44:47;4.53;;;1.50;;
26620;SDS011;14253;44.840;10.444;2022-08-01T10:47:15;6.28;;;1.40;;
26620;SDS011;14253;44.840;10.444;2022-08-01T10:52:37;2.85;;;1.30;;
26620;SDS011;14253;44.840;10.444;2022-08-01T10:55:04;3.88;;;1.70;;
26620;SDS011;14253;44.840;10.444;2022-08-01T10:57:43;3.08;;;1.67;;
26620;SDS011;14253;44.840;10.444;2022-08-01T11:00:16;3.58;;;1.92;;
26620;SDS011;14253;44.840;10.444;2022-08-01T11:02:44;3.83;;;1.50;;
26620;SDS011;14253;44.840;10.444;2022-08-01T11:05:27;2.40;;;1.20;;
26620;SDS011;14253;44.840;10.444;2022-08-01T11:07:56;4.15;;;1.40;;
26620;SDS011;14253;44.840;10.444;2022-08-01T11:10:42;3.05;;;1.50;;
26620;SDS011;14253;44.840;10.444;2022-08-01T11:13:08;1.67;;;1.40;;
26620;SDS011;14253;44.840;10.444;2022-08-01T11:15:39;5.00;;;1.70;;
26620;SDS011;14253;44.840;10.444;2022-08-01T11:20:58;2.78;;;1.33;;
26620;SDS011;14253;44.840;10.444;2022-08-01T11:23:25;2.22;;;1.25;;
26620;SDS011;14253;44.840;10.444;2022-08-01T11:28:20;4.55;;;1.35;;
26620;SDS011;14253;44.840;10.444;2022-08-01T11:30:51;3.63;;;1.20;;
26620;SDS011;14253;44.840;10.444;2022-08-01T11:33:53;2.72;;;1.48;;
26620;SDS011;14253;44.840;10.444;2022-08-01T11:38:42;3.28;;;1.30;;
26620;SDS011;14253;44.840;10.444;2022-08-01T11:41:10;4.75;;;1.20;;
26620;SDS011;14253;44.840;10.444;2022-08-01T11:52:09;4.78;;;1.58;;
26620;SDS011;14253;44.840;10.444;2022-08-01T11:57:19;4.65;;;1.80;;
26620;SDS011;14253;44.840;10.444;2022-08-01T11:59:47;5.05;;;1.80;;
26620;SDS011;14253;44.840;10.444;2022-08-01T12:02:15;3.85;;;1.70;;
26620;SDS011;14253;44.840;10.444;2022-08-01T12:05:24;5.22;;;2.00;;
26620;SDS011;14253;44.840;10.444;2022-08-01T12:07:33;3.08;;;1.60;;
26620;SDS011;14253;44.840;10.444;2022-08-01T12:10:02;3.05;;;1.60;;
26620;SDS011;14253;44.840;10.444;2022-08-01T12:12:29;3.67;;;1.40;;
26620;SDS011;14253;44.840;10.444;2022-08-01T12:14:58;2.78;;;1.50;;
26620;SDS011;14253;44.840;10.444;2022-08-01T12:17:29;3.63;;;1.13;;
26620;SDS011;14253;44.840;10.444;2022-08-01T12:19:56;2.50;;;1.63;;
26620;SDS011;14253;44.840;10.444;2022-08-01T12:22:23;3.50;;;1.48;;
26620;SDS011;14253;44.840;10.444;2022-08-01T12:24:50;2.42;;;1.40;;
26620;SDS011;14253;44.840;10.444;2022-08-01T12:27:23;4.75;;;1.70;;
26620;SDS011;14253;44.840;10.444;2022-08-01T12:29:50;1.83;;;1.23;;
26620;SDS011;14253;44.840;10.444;2022-08-01T12:32:21;3.05;;;1.10;;
26620;SDS011;14253;44.840;10.444;2022-08-01T12:34:56;3.85;;;1.20;;
26620;SDS011;14253;44.840;10.444;2022-08-01T12:37:27;2.85;;;1.10;;
26620;SDS011;14253;44.840;10.444;2022-08-01T12:39:53;2.17;;;1.20;;
26620;SDS011;14253;44.840;10.444;2022-08-01T12:42:19;1.67;;;1.05;;
26620;SDS011;14253;44.840;10.444;2022-08-01T12:44:47;1.63;;;1.38;;
26620;SDS011;14253;44.840;10.444;2022-08-01T12:47:16;3.40;;;1.00;;
26620;SDS011;14253;44.840;10.444;2022-08-01T12:49:45;1.90;;;1.17;;
26620;SDS011;14253;44.840;10.444;2022-08-01T12:52:13;1.58;;;0.85;;
26620;SDS011;14253;44.840;10.444;2022-08-01T12:55:01;5.40;;;1.40;;
26620;SDS011;14253;44.840;10.444;2022-08-01T12:57:33;2.67;;;0.90;;
26620;SDS011;14253;44.840;10.444;2022-08-01T13:00:07;2.53;;;1.20;;
26620;SDS011;14253;44.840;10.444;2022-08-01T13:02:36;2.92;;;1.35;;
26620;SDS011;14253;44.840;10.444;2022-08-01T13:05:02;2.55;;;1.23;;
26620;SDS011;14253;44.840;10.444;2022-08-01T13:07:42;2.05;;;1.20;;
26620;SDS011;14253;44.840;10.444;2022-08-01T13:10:12;4.57;;;1.20;;
26620;SDS011;14253;44.840;10.444;2022-08-01T13:12:40;5.07;;;1.30;;
26620;SDS011;14253;44.840;10.444;2022-08-01T13:15:19;2.88;;;1.50;;
26620;SDS011;14253;44.840;10.444;2022-08-01T13:17:48;3.17;;;1.40;;
26620;SDS011;14253;44.840;10.444;2022-08-01T13:20:22;2.70;;;1.30;;
26620;SDS011;14253;44.840;10.444;2022-08-01T13:22:49;1.23;;;0.90;;
26620;SDS011;14253;44.840;10.444;2022-08-01T13:25:15;2.58;;;1.25;;
26620;SDS011;14253;44.840;10.444;2022-08-01T13:27:44;2.55;;;1.17;;
26620;SDS011;14253;44.840;10.444;2022-08-01T13:30:18;3.28;;;1.30;;
26620;SDS011;14253;44.840;10.444;2022-08-01T13:33:00;1.63;;;1.23;;
26620;SDS011;14253;44.840;10.444;2022-08-01T13:35:26;5.47;;;1.23;;
26620;SDS011;14253;44.840;10.444;2022-08-01T13:37:52;4.15;;;1.30;;
26620;SDS011;14253;44.840;10.444;2022-08-01T13:40:27;3.25;;;1.40;;
26620;SDS011;14253;44.840;10.444;2022-08-01T13:42:54;3.25;;;1.00;;
26620;SDS011;14253;44.840;10.444;2022-08-01T13:45:22;2.65;;;1.50;;
26620;SDS011;14253;44.840;10.444;2022-08-01T13:47:48;5.40;;;1.27;;
26620;SDS011;14253;44.840;10.444;2022-08-01T13:50:15;4.43;;;1.40;;
26620;SDS011;14253;44.840;10.444;2022-08-01T13:52:41;8.13;;;1.55;;
26620;SDS011;14253;44.840;10.444;2022-08-01T13:55:07;1.85;;;1.00;;
26620;SDS011;14253;44.840;10.444;2022-08-01T13:57:33;2.65;;;1.13;;
26620;SDS011;14253;44.840;10.444;2022-08-01T13:59:59;3.42;;;1.58;;
26620;SDS011;14253;44.840;10.444;2022-08-01T14:02:26;2.55;;;1.20;;
26620;SDS011;14253;44.840;10.444;2022-08-01T14:04:53;2.67;;;1.10;;
26620;SDS011;14253;44.840;10.444;2022-08-01T14:07:20;3.85;;;1.05;;
26620;SDS011;14253;44.840;10.444;2022-08-01T14:09:46;3.15;;;1.20;;
26620;SDS011;14253;44.840;10.444;2022-08-01T14:12:13;1.88;;;1.30;;
26620;SDS011;14253;44.840;10.444;2022-08-01T14:14:39;13.30;;;1.80;;
26620;SDS011;14253;44.840;10.444;2022-08-01T14:17:05;1.83;;;0.95;;
26620;SDS011;14253;44.840;10.444;2022-08-01T14:19:31;3.20;;;1.23;;
26620;SDS011;14253;44.840;10.444;2022-08-01T14:21:57;2.13;;;1.05;;
26620;SDS011;14253;44.840;10.444;2022-08-01T14:24:23;3.15;;;0.90;;
26620;SDS011;14253;44.840;10.444;2022-08-01T14:26:51;3.50;;;1.60;;
26620;SDS011;14253;44.840;10.444;2022-08-01T14:29:17;2.45;;;1.20;;
26620;SDS011;14253;44.840;10.444;2022-08-01T14:31:43;4.55;;;1.10;;
26620;SDS011;14253;44.840;10.444;2022-08-01T14:34:09;4.55;;;1.20;;
26620;SDS011;14253;44.840;10.444;2022-08-01T14:36:39;2.47;;;1.35;;
26620;SDS011;14253;44.840;10.444;2022-08-01T14:39:13;2.92;;;1.25;;
26620;SDS011;14253;44.840;10.444;2022-08-01T14:41:40;3.92;;;1.33;;
26620;SDS011;14253;44.840;10.444;2022-08-01T14:44:06;4.65;;;1.50;;
26620;SDS011;14253;44.840;10.444;2022-08-01T14:46:34;3.05;;;1.30;;
26620;SDS011;14253;44.840;10.444;2022-08-01T14:49:00;2.78;;;1.00;;
26620;SDS011;14253;44.840;10.444;2022-08-01T14:51:26;3.97;;;1.50;;
26620;SDS011;14253;44.840;10.444;2022-08-01T14:53:52;1.60;;;1.23;;
26620;SDS011;14253;44.840;10.444;2022-08-01T14:56:18;4.30;;;1.35;;
26620;SDS011;14253;44.840;10.444;2022-08-01T14:58:44;2.70;;;1.17;;
26620;SDS011;14253;44.840;10.444;2022-08-01T15:01:12;3.70;;;1.40;;
26620;SDS011;14253;44.840;10.444;2022-08-01T15:03:38;1.48;;;1.00;;
26620;SDS011;14253;44.840;10.444;2022-08-01T15:06:04;5.78;;;1.40;;
26620;SDS011;14253;44.840;10.444;2022-08-01T15:08:31;2.17;;;1.02;;
26620;SDS011;14253;44.840;10.444;2022-08-01T15:10:57;2.22;;;1.08;;
26620;SDS011;14253;44.840;10.444;2022-08-01T15:13:23;4.45;;;1.00;;
26620;SDS011;14253;44.840;10.444;2022-08-01T15:15:49;2.45;;;1.10;;
26620;SDS011;14253;44.840;10.444;2022-08-01T15:18:15;2.28;;;0.82;;